createdAt,value
2023-03-12T00:02:18.357Z,3.34
2023-03-12T00:04:44.970Z,3.26
2023-03-12T00:07:11.670Z,3.22
2023-03-12T00:09:39.241Z,3.22
2023-03-12T00:12:06.611Z,3.19
2023-03-12T00:14:33.658Z,3.14
2023-03-12T00:17:00.353Z,3.10
2023-03-12T00:19:27.328Z,3.00
2023-03-12T00:21:53.921Z,3.07
2023-03-12T00:24:20.543Z,2.96
2023-03-12T00:26:47.910Z,2.87
2023-03-12T00:29:14.557Z,2.83
2023-03-12T00:31:41.375Z,2.79
2023-03-12T00:34:08.027Z,2.73
2023-03-12T00:36:34.679Z,2.54
2023-03-12T00:39:01.959Z,2.46
2023-03-12T00:41:30.488Z,2.44
2023-03-12T00:43:57.439Z,2.33
2023-03-12T00:46:24.613Z,2.22
2023-03-12T00:48:51.775Z,2.16
2023-03-12T00:51:18.810Z,2.14
2023-03-12T00:53:45.573Z,2.13
2023-03-12T00:56:12.398Z,2.02
2023-03-12T00:58:39.108Z,1.95
2023-03-12T01:01:06.049Z,1.83
2023-03-12T01:03:32.935Z,1.73
2023-03-12T01:05:59.565Z,1.58
2023-03-12T01:08:26.473Z,1.58
2023-03-12T01:10:53.326Z,1.68
2023-03-12T01:13:20.607Z,1.52
2023-03-12T01:15:47.363Z,1.40
2023-03-12T01:18:14.012Z,1.38
2023-03-12T01:20:41.076Z,1.26
2023-03-12T01:23:08.255Z,1.14
2023-03-12T01:25:36.119Z,1.20
2023-03-12T01:28:04.276Z,1.08
2023-03-12T01:30:31.290Z,1.08
2023-03-12T01:32:58.200Z,1.04
2023-03-12T01:35:25.299Z,0.98
2023-03-12T01:37:53.048Z,0.80
2023-03-12T01:40:25.406Z,0.74
2023-03-12T01:42:56.035Z,0.57
2023-03-12T01:46:10.529Z,0.53
2023-03-12T01:48:41.786Z,0.39
2023-03-12T01:51:12.346Z,0.35
2023-03-12T01:53:41.538Z,0.26
2023-03-12T01:56:09.059Z,0.31
2023-03-12T01:58:40.355Z,0.19
2023-03-12T02:01:07.527Z,0.16
2023-03-12T02:03:35.894Z,0.16
2023-03-12T02:06:06.825Z,0.07
2023-03-12T02:08:38.504Z,0.03
2023-03-12T02:11:05.108Z,-0.08
2023-03-12T02:13:31.929Z,-0.05
2023-03-12T02:15:58.774Z,-0.19
2023-03-12T02:18:25.599Z,-0.35
2023-03-12T02:21:16.968Z,-0.41
2023-03-12T02:24:11.038Z,-0.44
2023-03-12T02:26:39.117Z,-0.54
2023-03-12T02:29:07.083Z,-0.53
2023-03-12T02:31:40.852Z,-0.47
2023-03-12T02:34:08.582Z,-0.47
2023-03-12T02:36:36.370Z,-0.48
2023-03-12T02:39:03.381Z,-0.52
2023-03-12T02:41:34.242Z,-0.57
2023-03-12T02:44:11.399Z,-0.65
2023-03-12T02:46:42.353Z,-0.68
2023-03-12T02:49:11.894Z,-0.71
2023-03-12T02:51:39.580Z,-0.71
2023-03-12T02:54:06.568Z,-0.63
2023-03-12T02:56:33.930Z,-0.79
2023-03-12T02:59:03.260Z,-0.80
2023-03-12T03:01:34.933Z,-0.81
2023-03-12T03:04:03.002Z,-0.72
2023-03-12T03:06:29.962Z,-0.75
2023-03-12T03:08:56.868Z,-0.78
2023-03-12T03:11:24.705Z,-0.84
2023-03-12T03:13:55.434Z,-0.93
2023-03-12T03:16:23.417Z,-0.92
2023-03-12T03:18:50.232Z,-0.99
2023-03-12T03:21:17.128Z,-0.88
2023-03-12T03:23:47.107Z,-1.00
2023-03-12T03:26:15.178Z,-1.03
2023-03-12T03:31:08.173Z,-1.17
2023-03-12T03:33:39.631Z,-1.18
2023-03-12T03:36:08.951Z,-1.24
2023-03-12T03:38:40.541Z,-1.18
2023-03-12T03:41:08.221Z,-1.13
2023-03-12T03:43:40.253Z,-1.15
2023-03-12T03:46:07.133Z,-1.17
2023-03-12T03:48:38.045Z,-1.20
2023-03-12T03:51:09.220Z,-1.33
2023-03-12T03:53:39.123Z,-1.40
2023-03-12T03:56:08.306Z,-1.41
2023-03-12T03:58:37.906Z,-1.46
2023-03-12T04:01:06.221Z,-1.42
2023-03-12T04:03:33.439Z,-1.35
2023-03-12T04:06:02.358Z,-1.41
2023-03-12T04:08:29.972Z,-1.39
2023-03-12T04:10:56.678Z,-1.50
2023-03-12T04:13:23.436Z,-1.46
2023-03-12T04:15:53.519Z,-1.35
2023-03-12T04:18:20.990Z,-1.43
2023-03-12T04:20:47.879Z,-1.59
2023-03-12T04:23:14.999Z,-1.71
2023-03-12T04:25:41.815Z,-1.58
2023-03-12T04:28:08.917Z,-1.57
2023-03-12T04:30:38.324Z,-1.73
2023-03-12T04:33:06.582Z,-1.74
2023-03-12T04:35:33.970Z,-1.74
2023-03-12T04:38:02.249Z,-1.69
2023-03-12T04:40:29.993Z,-1.72
2023-03-12T04:42:56.857Z,-1.71
2023-03-12T04:45:23.970Z,-1.68
2023-03-12T04:47:50.706Z,-1.73
2023-03-12T04:50:17.863Z,-1.81
2023-03-12T04:52:44.756Z,-1.77
2023-03-12T04:55:11.808Z,-1.81
2023-03-12T04:57:38.493Z,-1.82
2023-03-12T05:00:11.042Z,-1.92
2023-03-12T05:02:38.144Z,-1.87
2023-03-12T05:05:05.565Z,-1.76
2023-03-12T05:07:32.267Z,-1.73
2023-03-12T05:09:59.386Z,-1.87
2023-03-12T05:12:26.135Z,-1.87
2023-03-12T05:14:52.837Z,-1.98
2023-03-12T05:17:19.587Z,-2.02
2023-03-12T05:19:46.722Z,-2.04
2023-03-12T05:22:13.450Z,-2.11
2023-03-12T05:24:40.135Z,-2.02
2023-03-12T05:27:08.575Z,-2.05
2023-03-12T05:29:35.797Z,-1.88
2023-03-12T05:32:04.358Z,-1.80
2023-03-12T05:34:34.200Z,-1.95
2023-03-12T05:37:02.251Z,-1.94
2023-03-12T05:39:30.148Z,-1.83
2023-03-12T05:42:01.947Z,-1.99
2023-03-12T05:44:29.181Z,-1.96
2023-03-12T05:46:58.746Z,-1.85
2023-03-12T05:49:26.454Z,-1.85
2023-03-12T05:51:54.725Z,-1.81
2023-03-12T05:54:23.073Z,-1.75
2023-03-12T05:56:52.124Z,-1.81
2023-03-12T05:59:20.714Z,-1.63
2023-03-12T06:01:48.329Z,-1.61
2023-03-12T06:04:15.812Z,-1.68
2023-03-12T06:06:42.530Z,-1.52
2023-03-12T06:09:09.882Z,-1.42
2023-03-12T06:11:36.580Z,-1.36
2023-03-12T06:14:03.850Z,-1.23
2023-03-12T06:16:31.191Z,-1.08
2023-03-12T06:19:01.943Z,-0.90
2023-03-12T06:21:34.825Z,-0.62
2023-03-12T06:24:02.366Z,-0.18
2023-03-12T06:26:35.834Z,0.00
2023-03-12T06:29:02.537Z,0.06
2023-03-12T06:31:29.332Z,0.10
2023-03-12T06:33:55.970Z,0.16
2023-03-12T06:36:23.996Z,0.20
2023-03-12T06:38:50.683Z,0.23
2023-03-12T06:41:19.234Z,0.22
2023-03-12T06:43:46.875Z,0.30
2023-03-12T06:46:17.952Z,0.48
2023-03-12T06:48:46.216Z,0.52
2023-03-12T06:51:14.674Z,0.94
2023-03-12T06:53:42.581Z,2.30
2023-03-12T06:56:09.967Z,4.14
2023-03-12T06:58:36.665Z,4.92
2023-03-12T07:01:04.026Z,5.91
2023-03-12T07:03:30.776Z,6.87
2023-03-12T07:05:58.486Z,7.67
2023-03-12T07:08:26.021Z,7.67
2023-03-12T07:10:52.668Z,8.54
2023-03-12T07:13:19.249Z,8.36
2023-03-12T07:15:46.589Z,9.34
2023-03-12T07:18:13.421Z,9.69
2023-03-12T07:20:42.339Z,9.11
2023-03-12T07:23:09.973Z,9.58
2023-03-12T07:25:38.282Z,10.02
2023-03-12T07:28:05.904Z,10.17
2023-03-12T07:30:33.672Z,9.99
2023-03-12T07:33:12.255Z,9.34
2023-03-12T07:35:39.548Z,9.62
2023-03-12T07:38:07.415Z,9.03
2023-03-12T07:40:35.130Z,8.91
2023-03-12T07:43:02.129Z,8.31
2023-03-12T07:45:32.436Z,8.49
2023-03-12T07:47:59.228Z,8.49
2023-03-12T07:50:25.931Z,9.45
2023-03-12T07:52:52.549Z,9.46
2023-03-12T07:55:19.272Z,10.50
2023-03-12T07:57:45.958Z,10.60
2023-03-12T08:00:13.508Z,11.23
2023-03-12T08:02:40.285Z,10.00
2023-03-12T08:05:07.721Z,11.55
2023-03-12T08:07:35.313Z,11.03
2023-03-12T08:10:05.110Z,11.51
2023-03-12T08:12:32.329Z,11.60
2023-03-12T08:14:59.173Z,12.67
2023-03-12T08:17:26.386Z,13.38
2023-03-12T08:19:53.016Z,13.23
2023-03-12T08:22:19.812Z,14.45
2023-03-12T08:24:46.503Z,14.58
2023-03-12T08:27:14.222Z,13.60
2023-03-12T08:29:41.408Z,13.73
2023-03-12T08:32:10.716Z,13.21
2023-03-12T08:34:37.575Z,15.03
2023-03-12T08:37:04.779Z,16.03
2023-03-12T08:39:32.041Z,16.58
2023-03-12T08:41:59.177Z,15.63
2023-03-12T08:44:26.588Z,16.96
2023-03-12T08:46:53.698Z,16.94
2023-03-12T08:49:21.429Z,17.20
2023-03-12T08:51:48.362Z,15.98
2023-03-12T08:54:15.273Z,16.19
2023-03-12T08:56:43.533Z,16.46
2023-03-12T08:59:13.849Z,16.08
2023-03-12T09:01:43.559Z,14.35
2023-03-12T09:04:10.653Z,13.63
2023-03-12T09:06:38.483Z,13.79
2023-03-12T09:09:05.835Z,13.04
2023-03-12T09:11:34.302Z,13.79
2023-03-12T09:14:33.786Z,12.68
2023-03-12T09:16:49.073Z,12.34
2023-03-12T09:19:15.909Z,13.59
2023-03-12T09:21:42.803Z,15.73
2023-03-12T09:24:10.361Z,15.01
2023-03-12T09:26:36.945Z,14.74
2023-03-12T09:29:03.538Z,14.66
2023-03-12T09:31:30.188Z,15.84
2023-03-12T09:33:56.990Z,17.68
2023-03-12T09:36:23.617Z,18.97
2023-03-12T09:38:50.246Z,19.42
2023-03-12T09:41:29.266Z,18.71
2023-03-12T09:44:10.920Z,17.95
2023-03-12T09:46:46.996Z,18.26
2023-03-12T09:49:30.306Z,18.68
2023-03-12T09:51:59.099Z,16.50
2023-03-12T09:54:45.813Z,15.05
2023-03-12T09:57:19.752Z,14.20
2023-03-12T09:59:46.344Z,13.69
2023-03-12T10:02:33.797Z,12.73
2023-03-12T10:05:18.764Z,12.00
2023-03-12T10:08:37.749Z,12.47
2023-03-12T10:11:36.648Z,13.16
2023-03-12T10:14:27.924Z,14.08
2023-03-12T10:17:31.885Z,13.91
2023-03-12T10:20:23.285Z,15.50
2023-03-12T10:22:55.119Z,16.48
2023-03-12T10:25:44.286Z,17.74
2023-03-12T10:28:20.016Z,17.37
2023-03-12T10:30:53.644Z,18.06
2023-03-12T10:33:21.881Z,19.06
2023-03-12T10:35:50.093Z,17.06
2023-03-12T10:38:30.184Z,16.09
2023-03-12T10:40:56.760Z,16.61
2023-03-12T10:43:24.026Z,15.88
2023-03-12T10:46:44.921Z,15.75
2023-03-12T10:49:23.572Z,14.93
2023-03-12T10:52:17.879Z,14.32
2023-03-12T10:54:47.418Z,14.72
2023-03-12T10:57:15.532Z,15.52
2023-03-12T10:59:45.469Z,15.55
2023-03-12T11:02:27.016Z,17.56
2023-03-12T11:04:54.170Z,18.86
2023-03-12T11:07:23.363Z,17.56
2023-03-12T11:10:07.275Z,15.49
2023-03-12T11:12:37.109Z,15.23
2023-03-12T11:15:20.998Z,14.81
2023-03-12T11:17:48.071Z,14.38
2023-03-12T11:20:20.889Z,12.90
2023-03-12T11:22:49.502Z,12.58
2023-03-12T11:25:35.009Z,12.81
2023-03-12T11:28:03.495Z,15.29
2023-03-12T11:30:38.458Z,14.85
2023-03-12T11:33:05.424Z,13.37
2023-03-12T11:36:03.901Z,16.15
2023-03-12T11:39:11.048Z,18.18
2023-03-12T11:42:08.163Z,18.59
2023-03-12T11:44:49.920Z,16.54
2023-03-12T11:47:37.001Z,19.31
2023-03-12T11:50:13.699Z,19.47
2023-03-12T11:53:18.242Z,19.15
2023-03-12T11:55:49.649Z,20.18
2023-03-12T11:58:35.045Z,17.66
2023-03-12T12:01:26.057Z,20.24
2023-03-12T12:04:20.311Z,19.54
2023-03-12T12:07:03.831Z,22.07
2023-03-12T12:09:33.908Z,22.18
2023-03-12T12:12:14.958Z,21.43
2023-03-12T12:14:53.452Z,22.15
2023-03-12T12:17:30.783Z,23.88
2023-03-12T12:20:12.097Z,22.60
2023-03-12T12:23:06.684Z,23.00
2023-03-12T12:25:39.791Z,20.76
2023-03-12T12:28:25.403Z,19.37
2023-03-12T12:31:29.904Z,19.03
2023-03-12T12:34:01.161Z,20.89
2023-03-12T12:36:32.010Z,20.68
2023-03-12T12:39:06.078Z,20.95
2023-03-12T12:41:37.908Z,19.45
2023-03-12T12:44:33.227Z,19.39
2023-03-12T12:47:05.499Z,17.69
2023-03-12T12:49:48.778Z,16.64
2023-03-12T12:52:20.137Z,16.37
2023-03-12T12:55:10.551Z,17.09
2023-03-12T12:57:54.541Z,16.19
2023-03-12T13:00:40.401Z,14.69
2023-03-12T13:03:11.946Z,13.76
2023-03-12T13:05:58.641Z,13.68
2023-03-12T13:08:55.345Z,13.11
2023-03-12T13:11:43.000Z,13.31
2023-03-12T13:14:09.540Z,13.47
2023-03-12T13:16:43.110Z,13.40
2023-03-12T13:19:18.965Z,13.76
2023-03-12T13:22:10.202Z,13.04
2023-03-12T13:24:39.778Z,14.26
2023-03-12T13:27:30.832Z,16.17
2023-03-12T13:29:57.989Z,17.76
2023-03-12T13:32:38.005Z,15.99
2023-03-12T13:35:27.506Z,15.17
2023-03-12T13:37:54.084Z,14.23
2023-03-12T13:40:29.753Z,15.24
2023-03-12T13:43:15.444Z,15.70
2023-03-12T13:45:48.121Z,15.64
2023-03-12T13:48:16.142Z,18.15
2023-03-12T13:50:52.068Z,17.64
2023-03-12T13:53:27.559Z,19.05
2023-03-12T13:56:08.516Z,19.36
2023-03-12T13:59:14.068Z,17.49
2023-03-12T14:01:43.685Z,17.98
2023-03-12T14:04:24.722Z,17.92
2023-03-12T14:06:59.781Z,18.45
2023-03-12T14:09:50.559Z,19.23
2023-03-12T14:12:28.612Z,18.45
2023-03-12T14:14:58.292Z,18.71
2023-03-12T14:17:28.104Z,19.40
2023-03-12T14:20:02.652Z,21.14
2023-03-12T14:22:32.979Z,19.35
2023-03-12T14:25:21.930Z,20.28
2023-03-12T14:27:49.002Z,19.87
2023-03-12T14:30:15.541Z,19.99
2023-03-12T14:32:43.633Z,20.32
2023-03-12T14:35:28.257Z,20.95
2023-03-12T14:38:00.356Z,21.39
2023-03-12T14:40:50.844Z,21.52
2023-03-12T14:43:29.606Z,21.40
2023-03-12T14:46:02.726Z,20.40
2023-03-12T14:48:35.044Z,20.52
2023-03-12T14:51:04.071Z,19.13
2023-03-12T14:53:33.594Z,20.84
2023-03-12T14:56:13.603Z,20.27
2023-03-12T14:58:50.188Z,18.54
2023-03-12T15:01:39.510Z,18.50
2023-03-12T15:04:15.261Z,19.98
2023-03-12T15:06:49.087Z,20.00
2023-03-12T15:09:22.126Z,19.13
2023-03-12T15:11:59.248Z,19.16
2023-03-12T15:14:29.332Z,19.37
2023-03-12T15:16:58.872Z,18.35
2023-03-12T15:19:33.259Z,18.95
2023-03-12T15:22:00.631Z,19.48
2023-03-12T15:24:30.433Z,19.22
2023-03-12T15:26:57.204Z,19.36
2023-03-12T15:29:30.434Z,18.61
2023-03-12T15:31:59.604Z,18.59
2023-03-12T15:34:32.984Z,17.36
2023-03-12T15:37:02.108Z,18.21
2023-03-12T15:39:34.674Z,18.21
2023-03-12T15:42:16.205Z,18.51
2023-03-12T15:44:47.065Z,17.93
2023-03-12T15:47:17.670Z,16.42
2023-03-12T15:49:50.827Z,16.94
2023-03-12T15:52:22.137Z,16.78
2023-03-12T15:55:24.979Z,17.51
2023-03-12T15:57:55.047Z,17.35
2023-03-12T16:00:25.358Z,15.94
2023-03-12T16:02:56.265Z,15.76
2023-03-12T16:05:41.201Z,15.22
2023-03-12T16:08:26.619Z,15.43
2023-03-12T16:10:54.041Z,14.90
2023-03-12T16:13:23.460Z,14.52
2023-03-12T16:15:51.000Z,13.88
2023-03-12T16:18:22.501Z,13.26
2023-03-12T16:20:51.026Z,11.86
2023-03-12T16:23:19.052Z,10.62
2023-03-12T16:26:05.397Z,9.89
2023-03-12T16:28:35.065Z,9.54
2023-03-12T16:31:02.364Z,9.43
2023-03-12T16:33:29.019Z,8.95
2023-03-12T16:35:56.024Z,8.65
2023-03-12T16:38:22.723Z,8.42
2023-03-12T16:40:51.853Z,8.07
2023-03-12T16:43:24.426Z,7.89
2023-03-12T16:45:52.735Z,7.77
2023-03-12T16:48:23.065Z,7.60
2023-03-12T16:50:57.798Z,7.44
2023-03-12T16:53:25.528Z,7.26
2023-03-12T16:55:55.526Z,7.05
2023-03-12T16:58:24.013Z,6.99
2023-03-12T17:00:51.819Z,6.88
2023-03-12T17:03:25.735Z,6.75
2023-03-12T17:05:53.567Z,6.63
2023-03-12T17:08:20.210Z,6.49
2023-03-12T17:10:46.819Z,6.39
2023-03-12T17:13:19.978Z,6.42
2023-03-12T17:15:47.258Z,6.35
2023-03-12T17:18:13.985Z,6.28
2023-03-12T17:20:42.192Z,6.42
2023-03-12T17:23:09.438Z,6.49
2023-03-12T17:25:38.972Z,6.48
2023-03-12T17:28:06.164Z,6.45
2023-03-12T17:30:34.394Z,6.45
2023-03-12T17:33:07.382Z,6.48
2023-03-12T17:35:35.028Z,6.28
2023-03-12T17:38:01.935Z,6.12
2023-03-12T17:40:28.886Z,5.89
2023-03-12T17:42:55.576Z,5.75
2023-03-12T17:45:22.713Z,5.68
2023-03-12T17:47:49.444Z,5.60
2023-03-12T17:50:17.232Z,5.40
2023-03-12T17:52:44.321Z,5.32
2023-03-12T17:55:11.947Z,5.26
2023-03-12T17:57:39.104Z,5.23
2023-03-12T18:00:12.685Z,5.33
2023-03-12T18:02:40.954Z,5.32
2023-03-12T18:05:09.828Z,5.18
2023-03-12T18:07:37.203Z,5.11
2023-03-12T18:10:06.488Z,4.92
2023-03-12T18:12:34.417Z,4.83
2023-03-12T18:15:02.022Z,4.68
2023-03-12T18:17:28.647Z,4.64
2023-03-12T18:19:55.295Z,4.58
2023-03-12T18:22:21.889Z,4.53
2023-03-12T18:24:48.618Z,4.55
2023-03-12T18:27:15.200Z,4.46
2023-03-12T18:29:42.386Z,4.40
2023-03-12T18:32:09.386Z,4.47
2023-03-12T18:34:36.139Z,4.27
2023-03-12T18:37:02.751Z,4.26
2023-03-12T18:39:29.375Z,4.19
2023-03-12T18:41:56.283Z,4.04
2023-03-12T18:44:23.018Z,3.96
2023-03-12T18:46:51.876Z,3.93
2023-03-12T18:49:18.704Z,3.88
2023-03-12T18:51:45.630Z,3.80
2023-03-12T18:54:12.808Z,3.90
2023-03-12T18:56:41.133Z,3.85
2023-03-12T18:59:09.975Z,3.68
2023-03-12T19:01:37.164Z,3.67
2023-03-12T19:04:04.499Z,3.66
2023-03-12T19:06:44.317Z,3.64
2023-03-12T19:09:16.702Z,3.63
2023-03-12T19:11:43.368Z,3.47
2023-03-12T19:14:10.480Z,3.51
2023-03-12T19:16:37.406Z,3.44
2023-03-12T19:19:04.111Z,3.34
2023-03-12T19:21:30.992Z,3.31
2023-03-12T19:23:58.075Z,3.28
2023-03-12T19:26:26.125Z,3.25
2023-03-12T19:28:52.968Z,3.19
2023-03-12T19:31:19.618Z,3.09
2023-03-12T19:33:46.479Z,3.01
2023-03-12T19:36:13.408Z,3.07
2023-03-12T19:38:40.345Z,3.01
2023-03-12T19:41:09.061Z,2.93
2023-03-12T19:43:37.000Z,2.89
2023-03-12T19:46:04.346Z,2.82
2023-03-12T19:48:31.381Z,2.87
2023-03-12T19:50:58.086Z,2.81
2023-03-12T19:53:25.017Z,2.81
2023-03-12T19:55:51.970Z,2.67
2023-03-12T19:58:18.985Z,2.66
2023-03-12T20:00:45.877Z,2.60
2023-03-12T20:03:12.537Z,2.59
2023-03-12T20:05:43.041Z,2.65
2023-03-12T20:08:11.162Z,2.54
2023-03-12T20:10:38.887Z,2.47
2023-03-12T20:13:05.682Z,2.47
2023-03-12T20:15:32.273Z,2.44
2023-03-12T20:17:58.924Z,2.34
2023-03-12T20:20:25.851Z,2.32
2023-03-12T20:22:52.540Z,2.42
2023-03-12T20:25:19.478Z,2.23
2023-03-12T20:27:47.472Z,2.03
2023-03-12T20:30:14.645Z,1.96
2023-03-12T20:32:42.766Z,1.95
2023-03-12T20:35:10.864Z,1.88
2023-03-12T20:37:37.535Z,1.92
2023-03-12T20:40:05.291Z,1.83
2023-03-12T20:42:31.971Z,1.81
2023-03-12T20:44:59.015Z,1.92
2023-03-12T20:47:26.727Z,1.90
2023-03-12T20:49:53.428Z,1.96
2023-03-12T20:52:20.446Z,1.84
2023-03-12T20:54:47.323Z,1.84
2023-03-12T20:57:14.320Z,1.81
2023-03-12T20:59:41.245Z,1.72
2023-03-12T21:02:08.253Z,1.65
2023-03-12T21:04:35.129Z,1.83
2023-03-12T21:07:02.092Z,1.78
2023-03-12T21:09:29.022Z,1.83
2023-03-12T21:11:56.602Z,1.75
2023-03-12T21:14:23.496Z,1.78
2023-03-12T21:16:51.001Z,1.72
2023-03-12T21:19:18.820Z,1.65
2023-03-12T21:21:45.417Z,1.73
2023-03-12T21:24:12.206Z,1.81
2023-03-12T21:26:39.272Z,1.93
2023-03-12T21:29:06.622Z,1.88
2023-03-12T21:31:33.264Z,1.89
2023-03-12T21:33:59.982Z,1.94
2023-03-12T21:36:27.099Z,1.87
2023-03-12T21:38:53.913Z,1.76
2023-03-12T21:41:21.812Z,1.70
2023-03-12T21:43:49.240Z,1.64
2023-03-12T21:46:19.318Z,1.58
2023-03-12T21:48:48.584Z,1.72
2023-03-12T21:51:17.842Z,1.54
2023-03-12T21:53:44.783Z,1.43
2023-03-12T21:56:12.133Z,1.53
2023-03-12T21:58:38.913Z,1.34
2023-03-12T22:01:14.465Z,1.30
2023-03-12T22:03:43.497Z,1.21
2023-03-12T22:06:11.765Z,1.13
2023-03-12T22:08:40.043Z,1.07
2023-03-12T22:11:08.292Z,1.01
2023-03-12T22:13:35.558Z,0.90
2023-03-12T22:16:06.711Z,0.95
2023-03-12T22:18:37.371Z,0.97
2023-03-12T22:21:07.759Z,0.96
2023-03-12T22:23:36.253Z,0.99
2023-03-12T22:26:04.927Z,0.96
2023-03-12T22:28:33.045Z,1.03
2023-03-12T22:31:05.411Z,1.09
2023-03-12T22:33:32.402Z,1.01
2023-03-12T22:35:59.213Z,0.92
2023-03-12T22:38:25.900Z,0.90
2023-03-12T22:40:55.383Z,0.98
2023-03-12T22:43:22.431Z,1.01
2023-03-12T22:45:53.757Z,0.98
2023-03-12T22:48:20.516Z,0.90
2023-03-12T22:50:56.179Z,0.81
2023-03-12T22:53:23.309Z,0.76
2023-03-12T22:55:58.115Z,0.80
2023-03-12T22:58:24.743Z,0.73
2023-03-12T23:00:59.348Z,0.75
2023-03-12T23:03:26.445Z,0.74
2023-03-12T23:05:53.128Z,0.72
2023-03-12T23:08:19.786Z,0.80
2023-03-12T23:10:58.047Z,0.80
2023-03-12T23:13:25.910Z,0.75
2023-03-12T23:15:52.814Z,0.69
2023-03-12T23:18:20.148Z,0.70
2023-03-12T23:20:47.346Z,0.64
2023-03-12T23:23:16.720Z,0.54
2023-03-12T23:25:51.553Z,0.59
2023-03-12T23:28:18.161Z,0.57
2023-03-12T23:30:53.426Z,0.56
2023-03-12T23:33:20.055Z,0.56
2023-03-12T23:35:58.027Z,0.45
2023-03-12T23:38:25.110Z,0.46
2023-03-12T23:40:52.139Z,0.50
2023-03-12T23:43:18.842Z,0.37
2023-03-12T23:45:45.491Z,0.44
2023-03-12T23:48:12.171Z,0.34
2023-03-12T23:50:38.855Z,0.26
2023-03-12T23:53:05.443Z,0.36
2023-03-12T23:55:32.014Z,0.42
2023-03-12T23:57:58.637Z,0.42
